Midway, AR (72651)

3:49 PM CST on February 08, 2016 (GMT -0600)
APRSWXNET | | Change Station
CLOSE
Current Station
Personal Weather Station
Location: Gassville, AR
Elevation: 1115 ft
Nearby Weather Stations
Active Advisory: Wind Advisory

Elev 1115 ft 36.26 °N, 92.49 °W | Updated 33 minutes ago

Overcast
Overcast
39 °F
Feels Like 34 °F
N
7
Wind Variable Wind from NW
Gusts 19.0 mph

Today
High -- | Low -- °F
--% Chance of Precip.
Yesterday
High -- | Low -- °F
Precip. -- in
Pressure 30.01 in
Visibility 10.0 miles
Clouds Overcast 5000 ft
Windchill 34 °F
Dew Point 18 °F
Humidity 42%
Rainfall in
Snow Depth Not available.
7:05 AM 5:43 PM
New Moon, 0% visible
METAR KBPK 082053Z AUTO 33010G22KT 10SM OVC050 02/M09 A2999 RMK AO2 PK WND 31026/2003 SLP160 T00171089 53008
Pressure 30.01 in
Visibility 10.0 miles
Clouds Overcast 5000 ft
Windchill 34 °F
Dew Point 18 °F
Humidity 42%
Rainfall in
Snow Depth Not available.
7:05 AM 5:43 PM
New Moon, 0% visible
METAR KBPK 082053Z AUTO 33010G22KT 10SM OVC050 02/M09 A2999 RMK AO2 PK WND 31026/2003 SLP160 T00171089 53008

10-Day Weather Forecast

Almanac

Astronomy

Feb. 08, 2016 Rise Set
Actual Time
Civil Twilight
Nautical Twilight
Astronomical Twilight
Moon
Length of Visible Light
Length of Day
Tomorrow will be .
, % of the Moon is Illuminated

Today's Extremes

State Highs State Lows

Community

WunderPhotos

Upload Photos

1,891,512 photos uploaded!

WunderBlog® & News

Nearby

Air Quality

  Air Quality AQ Index Pollutant
Not available.

Snow Depth

Station Depth Elevation

Earthquake Activity

City Distance Mag. Time & Date
Minimum magnitude displayed is 2.5.

Coastal Water Temperatures

Place Temperature

Stations

Nearby Weather Stations

Station Location Temp. Windchill Dew Point Humidity Wind Precip. Elev Updated Type
                   

Watches & Warnings

Wind Advisory
Issued: 10:04 AM CST Feb. 8, 2016 – National Weather Service

... Wind Advisory remains in effect until 6 PM CST this evening...

* event... strong pressure gradients across the region will
result in strong northwest winds.

* Areas affected... this will affect much of Arkansas.

* Timing... the strongest winds will occur between 6 am and 6 PM
today.

* Winds... northwest winds of 20 to 30 mph with gusts up to 40
mph are expected.

* Impacts... a Wind Advisory means that sustained winds of 25 mph
or higher are expected. Winds this strong can make driving
difficult... especially for high profile vehicles.
Additionally... boaters should use extra caution today should
they decide to venture out on area lakes. Strong winds can
easily swamp or capsize small boats.

Precautionary/preparedness actions...

A Wind Advisory means that sustained winds of 25 mph or higher
are expected. Winds this strong can make driving difficult...
especially for high profile vehicles. Use extra caution.